Northern Sonoma County Latest

25 Stations

15 Minute Data | America/Los_Angeles
as of 5/5/26 8:05 AM PDT
Station Date Time Temp (°F) RH (%) Dew Pt (°F) Wind Spd (mph) Wind Dir (°) Wind Gust (mph) Latest Rain (In) Daily Rain (In) Daily Max Temp (°F) Daily Min Temp (°F)
Bavarian Lion EFW 5/5/26 0800 53.8   0.6 - - - - - 0.00 0.01 54.0   0.8 52.1   5.2
Rockpile Lower (Cooley) 5/5/26 0745 50.8   0.4 85   4 46.6   0.8 5.9   2.3 W | 273 10.3   2.1 0.00 0.00 51.0   0.7 48.6   0.1
Rockpile Upper (Cooley) 5/5/26 0800 47.5   1.0 94   6 45.9   0.8 7.4   2.7 NNW | 331 14.7   5.7 0.00 0.00 47.9   1.9 45.0   0.4
Lower Dry Creek Valley 5/5/26 0800 57.2   1.0 80   5 51.3   2.7 0.0   0.7 N | 0 0.0   2.7 0.00 0.01 57.6   0.5 51.7   3.2
Geyserville-South (Nervo Station) 5/5/26 0800 57.2   0.8 - - 0.3   2.3 SE | 137 3.8   1.7 0.00 0.00 58.0   0.9 50.5   0.4
Franz Valley (Stornetta) 5/5/26 0800 53.1   3.1 94   3 51.3   3.9 0.1   0.2 ESE | 115 1.6   0.4 0.00 0.05 53.4   2.9 51.4   5.6
Geyserville (Ranch 3) 5/5/26 0800 57.3   1.6 79   1 50.8   1.8 2.7   1.8 NNW | 330 5.4   3.1 0.00 0.00 57.9   1.8 52.1   0.5
Geyserville-North (Hoffman) 5/5/26 0800 57.3   0.9 82   1 51.9   0.6 1.9   0.7 NNW | 327 3.7   1.4 0.00 0.00 58.0   0.5 51.1   0.2
Knights Valley (Bavarian Lion) 5/5/26 0800 53.4   0.9 88   2 50.0   1.7 0.4   0.1 WNW | 285 2.2   0.6 0.00 0.01 53.6   0.1 51.3   4.5
HWY 128/Chalk Hill Rd (Landslide) 5/5/26 0800 55.0   0.1 92   10 52.6   3.2 0.1   1.9 S | 176 1.1   3.7 0.00 0.02 56.1   1.0 52.4   1.9
Newman Knights Valley 5/5/26 0800 53.6   1.2 85   2 49.1   1.8 2.0   0.2 SW | 220 4.0   0.6 0.00 0.01 53.7   0.1 52.6   2.0
Jimtown-North (Piccolo Ranch 15) 5/5/26 0800 54.7   0.5 94   12 53.0   4.0 2.1   1.6 SSW | 196 4.6   1.8 0.00 0.00 55.4   0.6 52.1   1.1
Peterson (Ranch 09) 5/5/26 0800 57.2   3.6 75   6 49.4   1.4 0.5   1.7 WNW | 294 1.8   1.9 0.00 0.00 58.0   3.4 51.7   1.9
Cloverdale-SE (Ranch 38) 5/5/26 0800 53.2   1.0 90   5 50.3   0.5 4.3   3.8 NNW | 332 6.2   4.1 0.00 0.00 54.2   0.4 50.2   0.6
Geyserville-East (Ranch 40) 5/5/26 0800 57.4   5.2 82   10 51.9   1.9 1.7   1.0 NW | 316 4.7   2.7 0.00 0.00 58.4   5.5 49.9   0.7
N Chalk Hill Rd (Ranch 63) 5/5/26 0800 51.0   4.8 100   25 51.0   2.9 0.3   0.7 S | 176 1.8   1.2 0.00 0.00 51.8   5.1 49.0   0.1
Cloverdale-East (Ranch 83) 5/5/26 0800 52.8   0.9 - - 1.1   0.6 WNW | 286 2.3   0.0 0.00 0.00 53.1   3.1 49.3   1.6
Crazy Creek Ranch 5/5/26 0800 54.7   1.2 93   4 52.9   2.3 1.4   0.4 E | 85 3.1   0.1 0.00 0.00 54.8   0.3 52.0   0.5
Lytton East (Hill 5) 5/5/26 0800 55.7   2.0 87   1 51.8   2.4 0.8   1.8 S | 184 2.4   2.1 0.00 0.01 56.4   2.0 50.6   1.4
Lytton East (Shop Hill Bottom) 5/5/26 0800 55.8   2.1 87   3 51.9   2.9 1.2   1.0 SE | 139 2.9   1.0 0.00 0.00 56.7   2.6 51.0   2.6
Lytton West Hill (23PS) 5/5/26 0800 56.3   0.8 81   1 50.6   1.2 0.7   1.0 WSW | 248 1.9   1.7 0.00 0.00 57.1   0.8 51.7   2.6
Lytton West Lower (Lew 6) 5/5/26 0800 56.8   2.0 83   1 51.8   2.4 0.6   0.4 WSW | 256 2.4   1.7 0.00 0.01 57.5   1.6 51.3   3.8
Whitton Ranch (201e) 5/5/26 0800 57.0   0.4 83   5 51.9   2.2 1.1   0.2 E | 101 2.5   0.5 0.00 0.00 57.8   0.1 51.2   1.4
Upper Dry Creek Valley 5/5/26 0745 53.2   0.3 93   11 51.3   3.0 0.9   0.0 WNW | 301 2.5   0.2 0.00 0.01 53.6   1.5 51.3   3.1
Big River 5/5/26 0800 54.7   1.9 93   4 52.9   3.0 0.9   0.8 SW | 225 2.7   1.2 0.00 0.01 55.2   1.4 52.0   3.1
Max     57.4 100 53.0 7.4 - 14.7 0.00 0.05 58.4 52.6
Avg     54.7 87 50.9 1.6 - 3.7 0.00 - - -
Min     47.5 75 45.9 0.0 - 0.0 0.00 0.00 47.9 45.0